IWA9LA SAZS-SULS
Flight info
| Callsign | IWA9LA |
|---|---|
| Flight time | 1h 53m |
| Altitude | 37000 |
| Route | LIMAY2C LIMAY UZ109 ISMIL UT655 ASADA UM424 CRR |
| Aircraft | A319/M-SBDE3FGHIRWY/LB2 |
Departure
| Time | 2026-05-04 17:41 |
|---|---|
| Airport | Teniente Luis Candelaria International Airport (SAZS) |
Arrival
| Time | 2026-05-04 19:34 |
|---|---|
| Airport | Capitan Corbeta CA Curbelo International Airport (SULS) |
| Time | Latitude | Longitude | Altitude | Speed | Heading |
|---|---|---|---|---|---|
| 2026-05-04 17:00 | -41.14660 | -71.16138 | 2754 ft | 0 kts | 24° |
| 2026-05-04 17:31 | -41.14682 | -71.16152 | 2756 ft | 4 kts | 29° |
| 2026-05-04 17:31 | -41.14743 | -71.16220 | 2753 ft | 4 kts | 54° |
| 2026-05-04 17:32 | -41.14762 | -71.16284 | 2756 ft | 4 kts | 102° |
| 2026-05-04 17:33 | -41.14760 | -71.16296 | 2753 ft | 0 kts | 119° |
| 2026-05-04 17:35 | -41.14766 | -71.16281 | 2755 ft | 3 kts | 124° |
| 2026-05-04 17:35 | -41.14789 | -71.16236 | 2754 ft | 8 kts | 123° |
| 2026-05-04 17:36 | -41.14825 | -71.16150 | 2756 ft | 13 kts | 115° |
| 2026-05-04 17:36 | -41.14867 | -71.16031 | 2758 ft | 16 kts | 115° |
| 2026-05-04 17:36 | -41.14917 | -71.15889 | 2757 ft | 18 kts | 115° |
| 2026-05-04 17:36 | -41.14975 | -71.15725 | 2758 ft | 21 kts | 115° |
| 2026-05-04 17:37 | -41.15034 | -71.15552 | 2759 ft | 20 kts | 114° |
| 2026-05-04 17:37 | -41.15090 | -71.15388 | 2761 ft | 19 kts | 115° |
| 2026-05-04 17:37 | -41.15143 | -71.15237 | 2761 ft | 17 kts | 115° |
| 2026-05-04 17:37 | -41.15193 | -71.15095 | 2763 ft | 17 kts | 115° |
| 2026-05-04 17:38 | -41.15243 | -71.14953 | 2765 ft | 17 kts | 115° |
| 2026-05-04 17:38 | -41.15294 | -71.14808 | 2766 ft | 17 kts | 115° |
| 2026-05-04 17:38 | -41.15343 | -71.14665 | 2765 ft | 17 kts | 115° |
| 2026-05-04 17:38 | -41.15388 | -71.14537 | 2766 ft | 13 kts | 115° |
| 2026-05-04 17:39 | -41.15531 | -71.14525 | 2767 ft | 11 kts | 213° |
| 2026-05-04 17:39 | -41.15533 | -71.14585 | 2767 ft | 5 kts | 299° |
| 2026-05-04 17:39 | -41.15525 | -71.14605 | 2767 ft | 0 kts | 295° |
| 2026-05-04 17:40 | -41.15524 | -71.14609 | 2767 ft | 6 kts | 295° |
| 2026-05-04 17:40 | -41.15399 | -71.14963 | 2766 ft | 78 kts | 295° |
| 2026-05-04 17:40 | -41.15084 | -71.15872 | 2777 ft | 134 kts | 294° |
| 2026-05-04 17:40 | -41.14689 | -71.17016 | 3324 ft | 140 kts | 292° |
| 2026-05-04 17:41 | -41.14291 | -71.18191 | 3995 ft | 140 kts | 292° |
| 2026-05-04 17:41 | -41.13870 | -71.19444 | 4418 ft | 159 kts | 293° |
| 2026-05-04 17:41 | -41.13390 | -71.20875 | 4725 ft | 181 kts | 293° |
| 2026-05-04 17:41 | -41.12842 | -71.22507 | 5021 ft | 207 kts | 292° |
| 2026-05-04 17:42 | -41.12233 | -71.24316 | 5708 ft | 219 kts | 292° |
| 2026-05-04 17:42 | -41.11608 | -71.26159 | 6696 ft | 219 kts | 291° |
| 2026-05-04 17:42 | -41.10985 | -71.27989 | 7743 ft | 216 kts | 291° |
| 2026-05-04 17:42 | -41.10370 | -71.29794 | 8819 ft | 213 kts | 291° |
| 2026-05-04 17:43 | -41.09762 | -71.31579 | 9852 ft | 211 kts | 291° |
| 2026-05-04 17:43 | -41.09160 | -71.33349 | 10764 ft | 211 kts | 290° |
| 2026-05-04 17:43 | -41.08554 | -71.35129 | 11596 ft | 213 kts | 290° |
| 2026-05-04 17:43 | -41.07632 | -71.36696 | 12326 ft | 233 kts | 316° |
| 2026-05-04 17:44 | -41.05975 | -71.37356 | 13037 ft | 271 kts | 349° |
| 2026-05-04 17:44 | -41.04056 | -71.36603 | 13734 ft | 311 kts | 22° |
| 2026-05-04 17:44 | -41.02478 | -71.34470 | 14334 ft | 341 kts | 51° |
| 2026-05-04 17:44 | -41.01281 | -71.31589 | 14571 ft | 369 kts | 57° |
| 2026-05-04 17:45 | -41.00064 | -71.28476 | 14716 ft | 392 kts | 58° |
| 2026-05-04 17:45 | -40.98809 | -71.25203 | 14958 ft | 411 kts | 58° |
| 2026-05-04 17:45 | -40.97513 | -71.21768 | 15517 ft | 418 kts | 58° |
| 2026-05-04 17:45 | -40.96211 | -71.18291 | 16142 ft | 423 kts | 58° |
| 2026-05-04 17:46 | -40.94909 | -71.14828 | 16773 ft | 427 kts | 58° |
| 2026-05-04 17:46 | -40.93571 | -71.11294 | 17414 ft | 431 kts | 57° |
| 2026-05-04 17:46 | -40.92215 | -71.07737 | 18068 ft | 436 kts | 57° |
| 2026-05-04 17:46 | -40.90840 | -71.04147 | 18626 ft | 439 kts | 57° |
| 2026-05-04 17:47 | -40.89451 | -71.00525 | 19130 ft | 443 kts | 57° |
| 2026-05-04 17:47 | -40.88046 | -70.96863 | 19700 ft | 447 kts | 57° |
| 2026-05-04 17:47 | -40.86636 | -70.93182 | 20244 ft | 452 kts | 57° |
| 2026-05-04 17:47 | -40.85208 | -70.89455 | 20785 ft | 456 kts | 57° |
| 2026-05-04 17:48 | -40.83786 | -70.85749 | 21285 ft | 459 kts | 57° |
| 2026-05-04 17:48 | -40.82333 | -70.81972 | 21859 ft | 462 kts | 57° |
| 2026-05-04 17:48 | -40.80866 | -70.78162 | 22402 ft | 466 kts | 57° |
| 2026-05-04 17:48 | -40.79387 | -70.74322 | 22900 ft | 470 kts | 57° |
| 2026-05-04 17:49 | -40.78400 | -70.71762 | 23239 ft | 473 kts | 57° |
| 2026-05-04 17:49 | -40.76902 | -70.67889 | 23700 ft | 474 kts | 57° |
| 2026-05-04 17:49 | -40.75353 | -70.64024 | 24078 ft | 476 kts | 53° |
| 2026-05-04 17:49 | -40.73474 | -70.60444 | 24497 ft | 470 kts | 44° |
| 2026-05-04 17:50 | -40.71311 | -70.57247 | 24950 ft | 468 kts | 40° |
| 2026-05-04 17:50 | -40.69353 | -70.53742 | 25355 ft | 484 kts | 55° |
| 2026-05-04 17:50 | -40.67820 | -70.49756 | 25711 ft | 491 kts | 58° |
| 2026-05-04 17:50 | -40.66306 | -70.45701 | 26062 ft | 495 kts | 58° |
| 2026-05-04 17:51 | -40.64814 | -70.41658 | 26417 ft | 499 kts | 59° |
| 2026-05-04 17:51 | -40.63296 | -70.37522 | 26816 ft | 502 kts | 58° |
| 2026-05-04 17:51 | -40.61769 | -70.33373 | 27207 ft | 505 kts | 58° |
| 2026-05-04 17:51 | -40.60219 | -70.29198 | 27587 ft | 508 kts | 58° |
| 2026-05-04 17:52 | -40.58658 | -70.25021 | 27941 ft | 511 kts | 58° |
| 2026-05-04 17:52 | -40.57080 | -70.20812 | 28292 ft | 514 kts | 58° |
| 2026-05-04 17:52 | -40.55496 | -70.16587 | 28650 ft | 517 kts | 58° |
| 2026-05-04 17:52 | -40.53902 | -70.12337 | 29020 ft | 520 kts | 58° |
| 2026-05-04 17:53 | -40.52294 | -70.08057 | 29395 ft | 522 kts | 57° |
| 2026-05-04 17:53 | -40.50680 | -70.03765 | 29722 ft | 525 kts | 57° |
| 2026-05-04 17:53 | -40.49057 | -69.99452 | 30018 ft | 528 kts | 57° |
| 2026-05-04 17:53 | -40.47432 | -69.95152 | 30292 ft | 530 kts | 57° |
| 2026-05-04 17:54 | -40.45787 | -69.90795 | 30547 ft | 533 kts | 57° |
| 2026-05-04 17:54 | -40.44133 | -69.86418 | 30824 ft | 536 kts | 57° |
| 2026-05-04 17:54 | -40.42469 | -69.82022 | 31070 ft | 538 kts | 58° |
| 2026-05-04 17:54 | -40.40816 | -69.77663 | 31338 ft | 540 kts | 58° |
| 2026-05-04 17:55 | -40.39130 | -69.73224 | 31700 ft | 540 kts | 58° |
| 2026-05-04 17:55 | -40.37455 | -69.68811 | 32040 ft | 541 kts | 58° |
| 2026-05-04 17:55 | -40.35770 | -69.64382 | 32354 ft | 542 kts | 58° |
| 2026-05-04 17:55 | -40.34085 | -69.59959 | 32692 ft | 542 kts | 58° |
| 2026-05-04 17:56 | -40.32416 | -69.55595 | 33009 ft | 543 kts | 58° |
| 2026-05-04 17:56 | -40.30721 | -69.51174 | 33339 ft | 544 kts | 58° |
| 2026-05-04 17:56 | -40.29010 | -69.46728 | 33647 ft | 545 kts | 58° |
| 2026-05-04 17:56 | -40.27303 | -69.42289 | 33944 ft | 546 kts | 59° |
| 2026-05-04 17:57 | -40.25593 | -69.37831 | 34251 ft | 547 kts | 59° |
| 2026-05-04 17:57 | -40.23887 | -69.33386 | 34616 ft | 545 kts | 59° |
| 2026-05-04 17:57 | -40.22178 | -69.28954 | 34972 ft | 544 kts | 58° |
| 2026-05-04 17:57 | -40.20468 | -69.24533 | 35328 ft | 542 kts | 58° |
| 2026-05-04 17:58 | -40.18786 | -69.20191 | 35669 ft | 541 kts | 59° |
| 2026-05-04 17:58 | -40.17089 | -69.15809 | 35984 ft | 539 kts | 58° |
| 2026-05-04 17:58 | -40.15387 | -69.11424 | 36298 ft | 538 kts | 58° |
| 2026-05-04 17:58 | -40.13695 | -69.07071 | 36609 ft | 537 kts | 58° |
| 2026-05-04 17:59 | -40.11997 | -69.02711 | 36784 ft | 536 kts | 58° |
| 2026-05-04 17:59 | -40.10306 | -68.98376 | 36814 ft | 534 kts | 58° |
| 2026-05-04 18:00 | -40.05260 | -68.85458 | 36802 ft | 533 kts | 58° |
| 2026-05-04 18:00 | -40.01882 | -68.76824 | 36817 ft | 533 kts | 58° |
| 2026-05-04 18:01 | -39.98511 | -68.68261 | 36818 ft | 533 kts | 58° |
| 2026-05-04 18:01 | -39.95110 | -68.59655 | 36781 ft | 533 kts | 58° |
| 2026-05-04 18:02 | -39.90031 | -68.46814 | 36791 ft | 533 kts | 58° |
| 2026-05-04 18:02 | -39.86620 | -68.38243 | 36799 ft | 533 kts | 58° |
| 2026-05-04 18:03 | -39.83199 | -68.29664 | 36799 ft | 534 kts | 58° |
| 2026-05-04 18:03 | -39.79773 | -68.21087 | 36804 ft | 534 kts | 58° |
| 2026-05-04 18:04 | -39.76330 | -68.12489 | 36806 ft | 535 kts | 58° |
| 2026-05-04 18:05 | -39.71168 | -67.99649 | 36798 ft | 537 kts | 58° |
| 2026-05-04 18:05 | -39.67683 | -67.91012 | 36803 ft | 538 kts | 57° |
| 2026-05-04 18:06 | -39.62467 | -67.78140 | 36807 ft | 539 kts | 58° |
| 2026-05-04 18:06 | -39.58969 | -67.69515 | 36810 ft | 539 kts | 57° |
| 2026-05-04 18:07 | -39.55486 | -67.60971 | 36767 ft | 539 kts | 57° |
| 2026-05-04 18:07 | -39.51966 | -67.52391 | 36791 ft | 539 kts | 57° |
| 2026-05-04 18:08 | -39.48449 | -67.43812 | 36798 ft | 539 kts | 57° |
| 2026-05-04 18:08 | -39.44934 | -67.35228 | 36808 ft | 539 kts | 57° |
| 2026-05-04 18:09 | -39.37887 | -67.18156 | 36811 ft | 539 kts | 57° |
| 2026-05-04 18:10 | -39.34344 | -67.09619 | 36820 ft | 539 kts | 57° |
| 2026-05-04 18:10 | -39.30812 | -67.01128 | 36826 ft | 539 kts | 57° |
| 2026-05-04 18:11 | -39.27255 | -66.92589 | 36830 ft | 539 kts | 57° |
| 2026-05-04 18:11 | -39.23711 | -66.84099 | 36828 ft | 540 kts | 57° |
| 2026-05-04 18:12 | -39.20131 | -66.75571 | 36831 ft | 540 kts | 57° |
| 2026-05-04 18:12 | -39.16546 | -66.67043 | 36836 ft | 541 kts | 57° |
| 2026-05-04 18:13 | -39.12950 | -66.58501 | 36802 ft | 541 kts | 57° |
| 2026-05-04 18:14 | -39.07569 | -66.45781 | 36820 ft | 541 kts | 57° |
| 2026-05-04 18:14 | -39.03947 | -66.37261 | 36828 ft | 542 kts | 57° |
| 2026-05-04 18:15 | -38.96722 | -66.20277 | 36833 ft | 542 kts | 56° |
| 2026-05-04 18:16 | -38.93092 | -66.11783 | 36837 ft | 541 kts | 56° |
| 2026-05-04 18:16 | -38.89485 | -66.03358 | 36838 ft | 541 kts | 56° |
| 2026-05-04 18:17 | -38.84019 | -65.90676 | 36845 ft | 541 kts | 56° |
| 2026-05-04 18:18 | -38.78525 | -65.77996 | 36836 ft | 541 kts | 56° |
| 2026-05-04 18:18 | -38.74865 | -65.69552 | 36837 ft | 541 kts | 56° |
| 2026-05-04 18:19 | -38.69386 | -65.56939 | 36827 ft | 542 kts | 56° |
| 2026-05-04 18:19 | -38.65704 | -65.48495 | 36835 ft | 542 kts | 56° |
| 2026-05-04 18:20 | -38.62045 | -65.40115 | 36841 ft | 542 kts | 56° |
| 2026-05-04 18:20 | -38.58352 | -65.31694 | 36853 ft | 542 kts | 56° |
| 2026-05-04 18:21 | -38.54650 | -65.23294 | 36843 ft | 542 kts | 56° |
| 2026-05-04 18:21 | -38.50945 | -65.14891 | 36842 ft | 542 kts | 56° |
| 2026-05-04 18:22 | -38.47255 | -65.06552 | 36859 ft | 542 kts | 56° |
| 2026-05-04 18:22 | -38.43531 | -64.98171 | 36861 ft | 542 kts | 56° |
| 2026-05-04 18:23 | -38.39802 | -64.89793 | 36852 ft | 543 kts | 56° |
| 2026-05-04 18:23 | -38.36090 | -64.81465 | 36846 ft | 543 kts | 56° |
| 2026-05-04 18:24 | -38.32360 | -64.73100 | 36862 ft | 542 kts | 56° |
| 2026-05-04 18:24 | -38.28613 | -64.64743 | 36853 ft | 542 kts | 56° |
| 2026-05-04 18:25 | -38.24865 | -64.56400 | 36854 ft | 542 kts | 56° |
| 2026-05-04 18:25 | -38.21136 | -64.48116 | 36853 ft | 542 kts | 56° |
| 2026-05-04 18:26 | -38.17377 | -64.39789 | 36865 ft | 542 kts | 55° |
| 2026-05-04 18:26 | -38.13621 | -64.31517 | 36855 ft | 542 kts | 55° |
| 2026-05-04 18:27 | -38.09846 | -64.23209 | 36855 ft | 543 kts | 55° |
| 2026-05-04 18:27 | -38.06070 | -64.14898 | 36858 ft | 543 kts | 55° |
| 2026-05-04 18:28 | -38.02303 | -64.06651 | 36858 ft | 543 kts | 55° |
| 2026-05-04 18:28 | -37.98512 | -63.98372 | 36849 ft | 542 kts | 55° |
| 2026-05-04 18:29 | -37.94717 | -63.90087 | 36856 ft | 542 kts | 55° |
| 2026-05-04 18:29 | -37.90938 | -63.81846 | 36860 ft | 542 kts | 55° |
| 2026-05-04 18:30 | -37.85241 | -63.69505 | 36851 ft | 542 kts | 55° |
| 2026-05-04 18:31 | -37.81427 | -63.61269 | 36840 ft | 541 kts | 55° |
| 2026-05-04 18:31 | -37.77620 | -63.53075 | 36859 ft | 540 kts | 55° |
| 2026-05-04 18:32 | -37.73828 | -63.44927 | 36867 ft | 540 kts | 55° |
| 2026-05-04 18:32 | -37.70021 | -63.36752 | 36859 ft | 539 kts | 55° |
| 2026-05-04 18:33 | -37.66211 | -63.28599 | 36867 ft | 538 kts | 55° |
| 2026-05-04 18:33 | -37.62393 | -63.20439 | 36866 ft | 538 kts | 55° |
| 2026-05-04 18:34 | -37.58601 | -63.12359 | 36854 ft | 538 kts | 55° |
| 2026-05-04 18:34 | -37.54778 | -63.04250 | 36860 ft | 538 kts | 54° |
| 2026-05-04 18:35 | -37.50944 | -62.96151 | 36865 ft | 537 kts | 54° |
| 2026-05-04 18:35 | -37.47138 | -62.88107 | 36864 ft | 537 kts | 54° |
| 2026-05-04 18:36 | -37.43304 | -62.80035 | 36853 ft | 537 kts | 55° |
| 2026-05-04 18:36 | -37.39468 | -62.71965 | 36862 ft | 537 kts | 55° |
| 2026-05-04 18:37 | -37.35623 | -62.63911 | 36853 ft | 536 kts | 55° |
| 2026-05-04 18:37 | -37.31817 | -62.55937 | 36867 ft | 536 kts | 55° |
| 2026-05-04 18:38 | -37.27975 | -62.47901 | 36866 ft | 535 kts | 55° |
| 2026-05-04 18:38 | -37.24769 | -62.41238 | 36871 ft | 535 kts | 54° |
| 2026-05-04 18:39 | -37.20919 | -62.33235 | 36865 ft | 534 kts | 55° |
| 2026-05-04 18:39 | -37.17091 | -62.25311 | 36867 ft | 534 kts | 54° |
| 2026-05-04 18:40 | -37.13226 | -62.17343 | 36851 ft | 534 kts | 55° |
| 2026-05-04 18:40 | -37.09378 | -62.09392 | 36851 ft | 533 kts | 55° |
| 2026-05-04 18:41 | -37.05525 | -62.01445 | 36850 ft | 533 kts | 54° |
| 2026-05-04 18:41 | -37.01682 | -61.93568 | 36852 ft | 533 kts | 54° |
| 2026-05-04 18:42 | -36.97805 | -61.85643 | 36845 ft | 533 kts | 54° |
| 2026-05-04 18:42 | -36.93933 | -61.77721 | 36854 ft | 533 kts | 54° |
| 2026-05-04 18:43 | -36.90086 | -61.69858 | 36848 ft | 533 kts | 55° |
| 2026-05-04 18:43 | -36.86212 | -61.61978 | 36862 ft | 532 kts | 54° |
| 2026-05-04 18:44 | -36.82333 | -61.54115 | 36872 ft | 532 kts | 54° |
| 2026-05-04 18:44 | -36.78454 | -61.46256 | 36874 ft | 532 kts | 54° |
| 2026-05-04 18:45 | -36.74563 | -61.38401 | 36873 ft | 532 kts | 54° |
| 2026-05-04 18:45 | -36.70670 | -61.30550 | 36867 ft | 532 kts | 54° |
| 2026-05-04 18:46 | -36.66778 | -61.22717 | 36869 ft | 531 kts | 54° |
| 2026-05-04 18:46 | -36.62869 | -61.14896 | 36874 ft | 531 kts | 54° |
| 2026-05-04 18:47 | -36.58983 | -61.07136 | 36876 ft | 531 kts | 54° |
| 2026-05-04 18:47 | -36.55080 | -60.99325 | 36878 ft | 531 kts | 54° |
| 2026-05-04 18:48 | -36.51163 | -60.91520 | 36869 ft | 532 kts | 54° |
| 2026-05-04 18:48 | -36.47231 | -60.83725 | 36844 ft | 531 kts | 54° |
| 2026-05-04 18:49 | -36.43329 | -60.75981 | 36874 ft | 531 kts | 54° |
| 2026-05-04 18:49 | -36.39401 | -60.68206 | 36876 ft | 531 kts | 54° |
| 2026-05-04 18:50 | -36.35468 | -60.60439 | 36881 ft | 530 kts | 54° |
| 2026-05-04 18:50 | -36.31538 | -60.52690 | 36883 ft | 531 kts | 54° |
| 2026-05-04 18:51 | -36.27606 | -60.44982 | 36894 ft | 531 kts | 54° |
| 2026-05-04 18:51 | -36.23652 | -60.37237 | 36875 ft | 531 kts | 54° |
| 2026-05-04 18:52 | -36.19700 | -60.29510 | 36869 ft | 531 kts | 54° |
| 2026-05-04 18:52 | -36.15763 | -60.21828 | 36869 ft | 531 kts | 54° |
| 2026-05-04 18:53 | -36.11802 | -60.14110 | 36868 ft | 531 kts | 54° |
| 2026-05-04 18:53 | -36.07830 | -60.06406 | 36870 ft | 531 kts | 54° |
| 2026-05-04 18:54 | -36.03848 | -59.98685 | 36870 ft | 532 kts | 54° |
| 2026-05-04 18:54 | -35.99861 | -59.90979 | 36870 ft | 531 kts | 54° |
| 2026-05-04 18:55 | -35.95903 | -59.83345 | 36886 ft | 531 kts | 54° |
| 2026-05-04 18:55 | -35.89915 | -59.71830 | 36893 ft | 531 kts | 54° |
| 2026-05-04 18:56 | -35.85923 | -59.64166 | 36898 ft | 531 kts | 54° |
| 2026-05-04 18:56 | -35.81940 | -59.56547 | 36894 ft | 531 kts | 54° |
| 2026-05-04 18:57 | -35.77936 | -59.48908 | 36897 ft | 531 kts | 54° |
| 2026-05-04 18:57 | -35.73923 | -59.41249 | 36901 ft | 531 kts | 54° |
| 2026-05-04 18:58 | -35.69934 | -59.33661 | 36901 ft | 531 kts | 54° |
| 2026-05-04 18:58 | -35.65909 | -59.26025 | 36899 ft | 531 kts | 54° |
| 2026-05-04 18:59 | -35.61881 | -59.18390 | 36898 ft | 532 kts | 54° |
| 2026-05-04 18:59 | -35.57845 | -59.10772 | 36902 ft | 532 kts | 54° |
| 2026-05-04 19:00 | -35.53831 | -59.03190 | 36887 ft | 532 kts | 54° |
| 2026-05-04 19:00 | -35.49786 | -58.95565 | 36892 ft | 532 kts | 54° |
| 2026-05-04 19:01 | -35.45718 | -58.87960 | 36902 ft | 532 kts | 54° |
| 2026-05-04 19:01 | -35.41655 | -58.80361 | 36905 ft | 532 kts | 54° |
| 2026-05-04 19:02 | -35.37619 | -58.72814 | 36907 ft | 532 kts | 54° |
| 2026-05-04 19:02 | -35.33551 | -58.65228 | 36912 ft | 532 kts | 54° |
| 2026-05-04 19:03 | -35.29475 | -58.57650 | 36916 ft | 532 kts | 54° |
| 2026-05-04 19:03 | -35.25403 | -58.50081 | 36918 ft | 532 kts | 54° |
| 2026-05-04 19:04 | -35.21342 | -58.42574 | 36920 ft | 532 kts | 54° |
| 2026-05-04 19:04 | -35.17257 | -58.35022 | 36915 ft | 532 kts | 54° |
| 2026-05-04 19:05 | -35.13159 | -58.27447 | 36915 ft | 532 kts | 54° |
| 2026-05-04 19:05 | -35.09068 | -58.19907 | 36887 ft | 532 kts | 54° |
| 2026-05-04 19:06 | -35.04985 | -58.12416 | 36900 ft | 532 kts | 54° |
| 2026-05-04 19:06 | -35.00877 | -58.04892 | 36916 ft | 532 kts | 54° |
| 2026-05-04 19:07 | -34.96758 | -57.97365 | 36924 ft | 532 kts | 54° |
| 2026-05-04 19:07 | -34.92676 | -57.89918 | 36927 ft | 532 kts | 54° |
| 2026-05-04 19:08 | -34.88563 | -57.82418 | 36928 ft | 532 kts | 54° |
| 2026-05-04 19:08 | -34.84446 | -57.74919 | 36932 ft | 532 kts | 54° |
| 2026-05-04 19:09 | -34.80310 | -57.67441 | 36934 ft | 532 kts | 54° |
| 2026-05-04 19:09 | -34.76225 | -57.60004 | 36933 ft | 532 kts | 58° |
| 2026-05-04 19:10 | -34.73315 | -57.51749 | 36929 ft | 531 kts | 77° |
| 2026-05-04 19:10 | -34.72437 | -57.42921 | 36926 ft | 521 kts | 97° |
| 2026-05-04 19:11 | -34.73085 | -57.34257 | 36928 ft | 518 kts | 102° |
| 2026-05-04 19:11 | -34.73818 | -57.25536 | 36915 ft | 519 kts | 102° |
| 2026-05-04 19:12 | -34.74180 | -57.21168 | 36656 ft | 519 kts | 102° |
| 2026-05-04 19:12 | -34.74887 | -57.12452 | 36145 ft | 518 kts | 102° |
| 2026-05-04 19:12 | -34.75243 | -57.08068 | 35230 ft | 525 kts | 102° |
| 2026-05-04 19:13 | -34.75608 | -57.03616 | 34191 ft | 534 kts | 101° |
| 2026-05-04 19:13 | -34.75979 | -56.99085 | 33078 ft | 541 kts | 101° |
| 2026-05-04 19:13 | -34.76345 | -56.94540 | 32440 ft | 536 kts | 100° |
| 2026-05-04 19:13 | -34.76698 | -56.90046 | 31756 ft | 532 kts | 100° |
| 2026-05-04 19:14 | -34.77038 | -56.85657 | 31064 ft | 523 kts | 100° |
| 2026-05-04 19:14 | -34.77375 | -56.81282 | 30411 ft | 514 kts | 99° |
| 2026-05-04 19:14 | -34.77710 | -56.76964 | 29623 ft | 507 kts | 99° |
| 2026-05-04 19:14 | -34.78038 | -56.72726 | 29003 ft | 497 kts | 99° |
| 2026-05-04 19:15 | -34.78358 | -56.68590 | 28461 ft | 485 kts | 99° |
| 2026-05-04 19:15 | -34.78672 | -56.64534 | 27916 ft | 478 kts | 99° |
| 2026-05-04 19:15 | -34.78983 | -56.60519 | 27379 ft | 473 kts | 99° |
| 2026-05-04 19:15 | -34.79290 | -56.56551 | 26853 ft | 469 kts | 99° |
| 2026-05-04 19:16 | -34.79593 | -56.52612 | 26344 ft | 465 kts | 99° |
| 2026-05-04 19:16 | -34.79886 | -56.48756 | 25864 ft | 461 kts | 99° |
| 2026-05-04 19:16 | -34.80178 | -56.44877 | 25378 ft | 458 kts | 99° |
| 2026-05-04 19:16 | -34.80465 | -56.41027 | 24890 ft | 455 kts | 98° |
| 2026-05-04 19:17 | -34.80750 | -56.37197 | 24417 ft | 453 kts | 98° |
| 2026-05-04 19:17 | -34.81031 | -56.33384 | 23940 ft | 451 kts | 98° |
| 2026-05-04 19:17 | -34.81310 | -56.29582 | 23455 ft | 450 kts | 98° |
| 2026-05-04 19:17 | -34.81590 | -56.25782 | 22928 ft | 448 kts | 98° |
| 2026-05-04 19:18 | -34.81864 | -56.22078 | 22485 ft | 444 kts | 98° |
| 2026-05-04 19:18 | -34.82138 | -56.18346 | 22000 ft | 441 kts | 98° |
| 2026-05-04 19:18 | -34.82411 | -56.14631 | 21498 ft | 439 kts | 97° |
| 2026-05-04 19:18 | -34.82677 | -56.10952 | 21021 ft | 436 kts | 97° |
| 2026-05-04 19:19 | -34.82939 | -56.07279 | 20523 ft | 434 kts | 97° |
| 2026-05-04 19:19 | -34.83176 | -56.03622 | 20026 ft | 433 kts | 93° |
| 2026-05-04 19:19 | -34.83008 | -55.99971 | 19526 ft | 432 kts | 82° |
| 2026-05-04 19:19 | -34.82596 | -55.96349 | 19023 ft | 431 kts | 82° |
| 2026-05-04 19:20 | -34.82191 | -55.92745 | 18525 ft | 429 kts | 82° |
| 2026-05-04 19:20 | -34.81794 | -55.89148 | 18001 ft | 426 kts | 82° |
| 2026-05-04 19:20 | -34.81405 | -55.85612 | 17504 ft | 418 kts | 82° |
| 2026-05-04 19:20 | -34.81022 | -55.82140 | 17034 ft | 410 kts | 82° |
| 2026-05-04 19:21 | -34.80646 | -55.78734 | 16577 ft | 401 kts | 82° |
| 2026-05-04 19:21 | -34.80277 | -55.75406 | 16138 ft | 394 kts | 82° |
| 2026-05-04 19:21 | -34.79908 | -55.72115 | 15694 ft | 391 kts | 82° |
| 2026-05-04 19:21 | -34.79536 | -55.68838 | 15250 ft | 389 kts | 82° |
| 2026-05-04 19:22 | -34.79168 | -55.65577 | 14814 ft | 388 kts | 82° |
| 2026-05-04 19:22 | -34.78802 | -55.62330 | 14376 ft | 387 kts | 82° |
| 2026-05-04 19:22 | -34.78442 | -55.59128 | 13939 ft | 386 kts | 82° |
| 2026-05-04 19:22 | -34.78078 | -55.55901 | 13475 ft | 385 kts | 82° |
| 2026-05-04 19:23 | -34.77707 | -55.52642 | 13012 ft | 382 kts | 82° |
| 2026-05-04 19:23 | -34.77346 | -55.49485 | 12564 ft | 379 kts | 82° |
| 2026-05-04 19:23 | -34.76987 | -55.46339 | 12118 ft | 371 kts | 82° |
| 2026-05-04 19:23 | -34.76636 | -55.43272 | 11710 ft | 361 kts | 81° |
| 2026-05-04 19:24 | -34.76296 | -55.40319 | 11574 ft | 344 kts | 81° |
| 2026-05-04 19:24 | -34.75970 | -55.37484 | 11290 ft | 335 kts | 81° |
| 2026-05-04 19:24 | -34.75651 | -55.34700 | 10893 ft | 330 kts | 81° |
| 2026-05-04 19:24 | -34.75441 | -55.32875 | 10594 ft | 329 kts | 81° |
| 2026-05-04 19:25 | -34.75123 | -55.30135 | 10143 ft | 325 kts | 81° |
| 2026-05-04 19:25 | -34.74709 | -55.26568 | 9661 ft | 316 kts | 80° |
| 2026-05-04 19:25 | -34.74403 | -55.23939 | 9263 ft | 310 kts | 80° |
| 2026-05-04 19:25 | -34.74204 | -55.22231 | 9004 ft | 306 kts | 79° |
| 2026-05-04 19:26 | -34.73911 | -55.19700 | 8628 ft | 300 kts | 79° |
| 2026-05-04 19:26 | -34.73620 | -55.17200 | 8252 ft | 294 kts | 79° |
| 2026-05-04 19:26 | -34.73335 | -55.14757 | 7886 ft | 288 kts | 79° |
| 2026-05-04 19:26 | -34.73057 | -55.12367 | 7543 ft | 282 kts | 79° |
| 2026-05-04 19:27 | -34.72784 | -55.10027 | 7206 ft | 276 kts | 78° |
| 2026-05-04 19:27 | -34.72517 | -55.07770 | 6878 ft | 270 kts | 78° |
| 2026-05-04 19:27 | -34.72249 | -55.05520 | 6552 ft | 268 kts | 78° |
| 2026-05-04 19:27 | -34.71984 | -55.03282 | 6214 ft | 267 kts | 78° |
| 2026-05-04 19:28 | -34.71721 | -55.01057 | 5864 ft | 265 kts | 78° |
| 2026-05-04 19:28 | -34.71457 | -54.98843 | 5508 ft | 264 kts | 78° |
| 2026-05-04 19:28 | -34.71264 | -54.96639 | 5134 ft | 263 kts | 90° |
| 2026-05-04 19:28 | -34.71725 | -54.94511 | 4771 ft | 262 kts | 118° |
| 2026-05-04 19:29 | -34.72896 | -54.92855 | 4427 ft | 256 kts | 146° |
| 2026-05-04 19:29 | -34.74470 | -54.91963 | 4128 ft | 246 kts | 166° |
| 2026-05-04 19:29 | -34.76090 | -54.91340 | 3825 ft | 242 kts | 166° |
| 2026-05-04 19:29 | -34.77680 | -54.90725 | 3529 ft | 238 kts | 166° |
| 2026-05-04 19:30 | -34.79246 | -54.90529 | 3357 ft | 218 kts | 197° |
| 2026-05-04 19:30 | -34.80498 | -54.91334 | 3075 ft | 201 kts | 232° |
| 2026-05-04 19:30 | -34.81154 | -54.92750 | 2819 ft | 188 kts | 257° |
| 2026-05-04 19:30 | -34.81538 | -54.94252 | 2573 ft | 182 kts | 255° |
| 2026-05-04 19:31 | -34.81911 | -54.95675 | 2347 ft | 172 kts | 255° |
| 2026-05-04 19:31 | -34.82266 | -54.97021 | 2104 ft | 162 kts | 255° |
| 2026-05-04 19:31 | -34.82608 | -54.98310 | 1898 ft | 158 kts | 255° |
| 2026-05-04 19:31 | -34.82941 | -54.99575 | 1691 ft | 159 kts | 255° |
| 2026-05-04 19:32 | -34.83278 | -55.00861 | 1468 ft | 159 kts | 255° |
| 2026-05-04 19:32 | -34.83603 | -55.02092 | 1257 ft | 143 kts | 256° |
| 2026-05-04 19:32 | -34.83894 | -55.03192 | 1069 ft | 132 kts | 257° |
| 2026-05-04 19:32 | -34.84168 | -55.04237 | 904 ft | 128 kts | 256° |
| 2026-05-04 19:33 | -34.84433 | -55.05255 | 735 ft | 128 kts | 253° |
| 2026-05-04 19:33 | -34.84706 | -55.06301 | 574 ft | 129 kts | 252° |
| 2026-05-04 19:33 | -34.84974 | -55.07329 | 420 ft | 129 kts | 251° |
| 2026-05-04 19:33 | -34.85248 | -55.08374 | 241 ft | 130 kts | 251° |
| 2026-05-04 19:34 | -34.85515 | -55.09410 | 99 ft | 122 kts | 253° |
| 2026-05-04 19:34 | -34.85716 | -55.10176 | 87 ft | 55 kts | 252° |
| 2026-05-04 19:34 | -34.85779 | -55.10412 | 84 ft | 21 kts | 252° |
| 2026-05-04 19:34 | -34.85813 | -55.10540 | 86 ft | 11 kts | 255° |
| 2026-05-04 19:35 | -34.85831 | -55.10610 | 85 ft | 4 kts | 196° |
| 2026-05-04 19:35 | -34.85850 | -55.10588 | 83 ft | 6 kts | 95° |
| 2026-05-04 19:35 | -34.85818 | -55.10541 | 86 ft | 9 kts | 50° |
| 2026-05-04 19:35 | -34.85789 | -55.10449 | 85 ft | 14 kts | 72° |
| 2026-05-04 19:36 | -34.85754 | -55.10319 | 88 ft | 17 kts | 72° |
| 2026-05-04 19:36 | -34.85718 | -55.10181 | 87 ft | 18 kts | 72° |
| 2026-05-04 19:36 | -34.85682 | -55.10041 | 92 ft | 16 kts | 72° |
| 2026-05-04 19:36 | -34.85656 | -55.09931 | 92 ft | 9 kts | 91° |
| 2026-05-04 19:37 | -34.85705 | -55.09888 | 89 ft | 10 kts | 162° |
| 2026-05-04 19:37 | -34.85782 | -55.09857 | 92 ft | 12 kts | 162° |
| 2026-05-04 19:37 | -34.85864 | -55.09823 | 89 ft | 13 kts | 157° |
| 2026-05-04 19:37 | -34.85941 | -55.09779 | 91 ft | 11 kts | 167° |
| 2026-05-04 19:38 | -34.85988 | -55.09815 | 91 ft | 7 kts | 261° |
| 2026-05-04 19:38 | -34.85960 | -55.09845 | 90 ft | 6 kts | 341° |
| 2026-05-04 19:38 | -34.85941 | -55.09853 | 90 ft | 0 kts | 342° |